sensor_id;sensor_type;location;lat;lon;timestamp;temperature;humidity
19880;DHT22;10102;50.828;4.416;2024-03-17T00:02:13;9.90;99.90
19880;DHT22;10102;50.828;4.416;2024-03-17T00:04:39;9.90;99.90
19880;DHT22;10102;50.828;4.416;2024-03-17T00:07:04;9.90;99.90
19880;DHT22;10102;50.828;4.416;2024-03-17T00:09:30;9.80;99.90
19880;DHT22;10102;50.828;4.416;2024-03-17T00:11:56;9.80;99.90
19880;DHT22;10102;50.828;4.416;2024-03-17T00:16:48;9.70;99.90
19880;DHT22;10102;50.828;4.416;2024-03-17T00:19:14;9.70;99.90
19880;DHT22;10102;50.828;4.416;2024-03-17T00:21:43;9.70;99.90
19880;DHT22;10102;50.828;4.416;2024-03-17T00:24:09;9.60;99.90
19880;DHT22;10102;50.828;4.416;2024-03-17T00:26:35;9.60;99.90
19880;DHT22;10102;50.828;4.416;2024-03-17T00:29:01;9.60;99.90
19880;DHT22;10102;50.828;4.416;2024-03-17T00:31:28;9.70;99.90
19880;DHT22;10102;50.828;4.416;2024-03-17T00:33:54;9.70;99.90
19880;DHT22;10102;50.828;4.416;2024-03-17T00:36:20;9.70;99.90
19880;DHT22;10102;50.828;4.416;2024-03-17T00:38:45;9.80;99.90
19880;DHT22;10102;50.828;4.416;2024-03-17T00:46:04;9.80;99.90
19880;DHT22;10102;50.828;4.416;2024-03-17T00:48:29;9.80;99.90
19880;DHT22;10102;50.828;4.416;2024-03-17T00:50:56;10.30;99.90
19880;DHT22;10102;50.828;4.416;2024-03-17T00:55:52;9.90;99.90
19880;DHT22;10102;50.828;4.416;2024-03-17T00:58:21;9.90;99.90
19880;DHT22;10102;50.828;4.416;2024-03-17T01:03:14;9.90;99.90
19880;DHT22;10102;50.828;4.416;2024-03-17T01:08:14;9.80;99.90
19880;DHT22;10102;50.828;4.416;2024-03-17T01:10:43;9.90;99.90
19880;DHT22;10102;50.828;4.416;2024-03-17T01:13:10;9.80;99.90
19880;DHT22;10102;50.828;4.416;2024-03-17T01:15:36;9.90;99.90
19880;DHT22;10102;50.828;4.416;2024-03-17T01:18:06;9.80;99.90
19880;DHT22;10102;50.828;4.416;2024-03-17T01:20:32;9.90;99.90
19880;DHT22;10102;50.828;4.416;2024-03-17T01:22:59;10.10;99.90
19880;DHT22;10102;50.828;4.416;2024-03-17T01:25:25;9.80;99.90
19880;DHT22;10102;50.828;4.416;2024-03-17T01:30:18;9.90;99.90
19880;DHT22;10102;50.828;4.416;2024-03-17T01:35:13;9.80;99.90
19880;DHT22;10102;50.828;4.416;2024-03-17T01:37:39;9.80;99.90
19880;DHT22;10102;50.828;4.416;2024-03-17T01:40:06;9.80;99.90
19880;DHT22;10102;50.828;4.416;2024-03-17T01:42:36;9.80;99.90
19880;DHT22;10102;50.828;4.416;2024-03-17T01:45:25;9.70;99.90
19880;DHT22;10102;50.828;4.416;2024-03-17T01:47:53;10.00;99.90
19880;DHT22;10102;50.828;4.416;2024-03-17T01:50:19;10.00;99.90
19880;DHT22;10102;50.828;4.416;2024-03-17T01:52:51;9.90;99.90
19880;DHT22;10102;50.828;4.416;2024-03-17T01:55:17;9.90;99.90
19880;DHT22;10102;50.828;4.416;2024-03-17T01:57:43;9.80;99.90
19880;DHT22;10102;50.828;4.416;2024-03-17T02:00:10;9.70;99.90
19880;DHT22;10102;50.828;4.416;2024-03-17T02:02:38;9.80;99.90
19880;DHT22;10102;50.828;4.416;2024-03-17T02:05:04;10.00;99.90
19880;DHT22;10102;50.828;4.416;2024-03-17T02:07:30;10.30;99.90
19880;DHT22;10102;50.828;4.416;2024-03-17T02:09:58;10.00;99.90
19880;DHT22;10102;50.828;4.416;2024-03-17T02:12:24;9.90;99.90
19880;DHT22;10102;50.828;4.416;2024-03-17T02:14:51;10.00;99.90
19880;DHT22;10102;50.828;4.416;2024-03-17T02:17:16;10.00;99.90
19880;DHT22;10102;50.828;4.416;2024-03-17T02:19:43;10.10;99.90
19880;DHT22;10102;50.828;4.416;2024-03-17T02:22:14;10.00;99.90
19880;DHT22;10102;50.828;4.416;2024-03-17T02:29:33;10.00;99.90
19880;DHT22;10102;50.828;4.416;2024-03-17T02:31:59;10.10;99.90
19880;DHT22;10102;50.828;4.416;2024-03-17T02:34:24;10.20;99.90
19880;DHT22;10102;50.828;4.416;2024-03-17T02:36:50;10.30;99.90
19880;DHT22;10102;50.828;4.416;2024-03-17T02:39:16;10.20;99.90
19880;DHT22;10102;50.828;4.416;2024-03-17T02:42:09;10.10;99.90
19880;DHT22;10102;50.828;4.416;2024-03-17T02:44:37;10.20;99.90
19880;DHT22;10102;50.828;4.416;2024-03-17T02:47:04;10.10;99.90
19880;DHT22;10102;50.828;4.416;2024-03-17T02:49:31;9.90;99.90
19880;DHT22;10102;50.828;4.416;2024-03-17T02:52:06;10.00;99.90
19880;DHT22;10102;50.828;4.416;2024-03-17T02:54:32;9.60;99.90
19880;DHT22;10102;50.828;4.416;2024-03-17T02:57:01;10.00;99.90
19880;DHT22;10102;50.828;4.416;2024-03-17T02:59:27;10.10;99.90
19880;DHT22;10102;50.828;4.416;2024-03-17T03:01:53;9.90;99.90
19880;DHT22;10102;50.828;4.416;2024-03-17T03:04:18;9.90;99.90
19880;DHT22;10102;50.828;4.416;2024-03-17T03:09:10;9.90;99.90
19880;DHT22;10102;50.828;4.416;2024-03-17T03:11:40;9.90;99.90
19880;DHT22;10102;50.828;4.416;2024-03-17T03:14:07;9.80;99.90
19880;DHT22;10102;50.828;4.416;2024-03-17T03:16:33;9.90;99.90
19880;DHT22;10102;50.828;4.416;2024-03-17T03:21:25;10.00;99.90
19880;DHT22;10102;50.828;4.416;2024-03-17T03:23:51;10.00;99.90
19880;DHT22;10102;50.828;4.416;2024-03-17T03:26:17;10.00;99.90
19880;DHT22;10102;50.828;4.416;2024-03-17T03:28:43;10.00;99.90
19880;DHT22;10102;50.828;4.416;2024-03-17T03:31:12;10.00;99.90
19880;DHT22;10102;50.828;4.416;2024-03-17T03:33:43;9.90;99.90
19880;DHT22;10102;50.828;4.416;2024-03-17T03:36:14;9.70;99.90
19880;DHT22;10102;50.828;4.416;2024-03-17T03:38:42;9.80;99.90
19880;DHT22;10102;50.828;4.416;2024-03-17T03:41:09;9.80;99.90
19880;DHT22;10102;50.828;4.416;2024-03-17T03:43:35;9.80;99.90
19880;DHT22;10102;50.828;4.416;2024-03-17T03:46:02;9.80;99.90
19880;DHT22;10102;50.828;4.416;2024-03-17T03:50:54;9.80;99.90
19880;DHT22;10102;50.828;4.416;2024-03-17T03:53:22;9.70;99.90
19880;DHT22;10102;50.828;4.416;2024-03-17T03:55:48;9.80;99.90
19880;DHT22;10102;50.828;4.416;2024-03-17T03:58:14;9.70;99.90
19880;DHT22;10102;50.828;4.416;2024-03-17T04:00:41;9.80;99.90
19880;DHT22;10102;50.828;4.416;2024-03-17T04:03:06;9.90;99.90
19880;DHT22;10102;50.828;4.416;2024-03-17T04:05:32;9.70;99.90
19880;DHT22;10102;50.828;4.416;2024-03-17T04:08:00;9.60;99.90
19880;DHT22;10102;50.828;4.416;2024-03-17T04:12:52;9.60;99.90
19880;DHT22;10102;50.828;4.416;2024-03-17T04:15:18;9.50;99.90
19880;DHT22;10102;50.828;4.416;2024-03-17T04:17:44;9.60;99.90
19880;DHT22;10102;50.828;4.416;2024-03-17T04:20:10;9.60;99.90
19880;DHT22;10102;50.828;4.416;2024-03-17T04:22:39;9.70;99.90
19880;DHT22;10102;50.828;4.416;2024-03-17T04:25:05;9.60;99.90
19880;DHT22;10102;50.828;4.416;2024-03-17T04:29:59;9.60;99.90
19880;DHT22;10102;50.828;4.416;2024-03-17T04:32:25;9.50;99.90
19880;DHT22;10102;50.828;4.416;2024-03-17T04:34:54;9.20;99.90
19880;DHT22;10102;50.828;4.416;2024-03-17T04:37:19;9.50;99.90
19880;DHT22;10102;50.828;4.416;2024-03-17T04:39:46;9.50;99.90
19880;DHT22;10102;50.828;4.416;2024-03-17T04:42:13;9.70;99.90
19880;DHT22;10102;50.828;4.416;2024-03-17T04:44:45;9.50;99.90
19880;DHT22;10102;50.828;4.416;2024-03-17T04:47:11;9.90;99.90
19880;DHT22;10102;50.828;4.416;2024-03-17T04:49:39;9.50;99.90
19880;DHT22;10102;50.828;4.416;2024-03-17T04:52:05;9.40;99.90
19880;DHT22;10102;50.828;4.416;2024-03-17T04:54:31;9.30;99.90
19880;DHT22;10102;50.828;4.416;2024-03-17T04:56:57;9.50;99.90
19880;DHT22;10102;50.828;4.416;2024-03-17T04:59:23;9.40;99.90
19880;DHT22;10102;50.828;4.416;2024-03-17T05:01:49;9.50;99.90
19880;DHT22;10102;50.828;4.416;2024-03-17T05:04:15;9.50;99.90
19880;DHT22;10102;50.828;4.416;2024-03-17T05:06:41;9.60;99.90
19880;DHT22;10102;50.828;4.416;2024-03-17T05:09:23;9.50;99.90
19880;DHT22;10102;50.828;4.416;2024-03-17T05:11:50;9.40;99.90
19880;DHT22;10102;50.828;4.416;2024-03-17T05:14:18;9.60;99.90
19880;DHT22;10102;50.828;4.416;2024-03-17T05:16:51;9.60;99.90
19880;DHT22;10102;50.828;4.416;2024-03-17T05:19:16;9.50;99.90
19880;DHT22;10102;50.828;4.416;2024-03-17T05:21:44;9.40;99.90
19880;DHT22;10102;50.828;4.416;2024-03-17T05:24:10;9.50;99.90
19880;DHT22;10102;50.828;4.416;2024-03-17T05:26:36;9.40;99.90
19880;DHT22;10102;50.828;4.416;2024-03-17T05:29:02;9.40;99.90
19880;DHT22;10102;50.828;4.416;2024-03-17T05:31:28;9.20;99.90
19880;DHT22;10102;50.828;4.416;2024-03-17T05:33:54;9.20;99.90
19880;DHT22;10102;50.828;4.416;2024-03-17T05:36:20;9.30;99.90
19880;DHT22;10102;50.828;4.416;2024-03-17T05:38:46;9.40;99.90
19880;DHT22;10102;50.828;4.416;2024-03-17T05:41:13;9.40;99.90
19880;DHT22;10102;50.828;4.416;2024-03-17T05:46:10;9.40;99.90
19880;DHT22;10102;50.828;4.416;2024-03-17T05:48:37;9.50;99.90
19880;DHT22;10102;50.828;4.416;2024-03-17T05:51:10;9.40;99.90
19880;DHT22;10102;50.828;4.416;2024-03-17T05:53:40;9.70;99.90
19880;DHT22;10102;50.828;4.416;2024-03-17T05:56:06;9.40;99.90
19880;DHT22;10102;50.828;4.416;2024-03-17T05:58:37;9.70;99.90
19880;DHT22;10102;50.828;4.416;2024-03-17T06:01:03;9.50;99.90
19880;DHT22;10102;50.828;4.416;2024-03-17T06:05:58;9.40;99.90
19880;DHT22;10102;50.828;4.416;2024-03-17T06:08:24;9.50;99.90
19880;DHT22;10102;50.828;4.416;2024-03-17T06:10:50;9.60;99.90
19880;DHT22;10102;50.828;4.416;2024-03-17T06:13:16;9.60;99.90
19880;DHT22;10102;50.828;4.416;2024-03-17T06:15:45;9.80;99.90
19880;DHT22;10102;50.828;4.416;2024-03-17T06:18:13;9.80;99.90
19880;DHT22;10102;50.828;4.416;2024-03-17T06:20:43;9.80;99.90
19880;DHT22;10102;50.828;4.416;2024-03-17T06:23:10;9.80;99.90
19880;DHT22;10102;50.828;4.416;2024-03-17T06:25:46;10.10;99.90
19880;DHT22;10102;50.828;4.416;2024-03-17T06:28:15;9.80;99.90
19880;DHT22;10102;50.828;4.416;2024-03-17T06:30:41;9.80;99.90
19880;DHT22;10102;50.828;4.416;2024-03-17T06:33:12;9.90;99.90
19880;DHT22;10102;50.828;4.416;2024-03-17T06:35:57;9.90;99.90
19880;DHT22;10102;50.828;4.416;2024-03-17T06:38:23;9.80;99.90
19880;DHT22;10102;50.828;4.416;2024-03-17T06:40:52;9.70;99.90
19880;DHT22;10102;50.828;4.416;2024-03-17T06:43:19;10.10;99.90
19880;DHT22;10102;50.828;4.416;2024-03-17T06:45:54;10.00;99.90
19880;DHT22;10102;50.828;4.416;2024-03-17T06:50:46;10.00;99.90
19880;DHT22;10102;50.828;4.416;2024-03-17T06:53:12;10.20;99.90
19880;DHT22;10102;50.828;4.416;2024-03-17T06:58:04;9.80;99.90
19880;DHT22;10102;50.828;4.416;2024-03-17T07:00:30;10.30;99.90
19880;DHT22;10102;50.828;4.416;2024-03-17T07:07:48;10.70;99.90
19880;DHT22;10102;50.828;4.416;2024-03-17T07:10:14;10.80;99.90
19880;DHT22;10102;50.828;4.416;2024-03-17T07:12:41;10.60;99.90
19880;DHT22;10102;50.828;4.416;2024-03-17T07:15:08;10.60;99.90
19880;DHT22;10102;50.828;4.416;2024-03-17T07:17:34;10.50;99.90
19880;DHT22;10102;50.828;4.416;2024-03-17T07:20:00;10.60;99.90
19880;DHT22;10102;50.828;4.416;2024-03-17T07:22:26;10.60;99.90
19880;DHT22;10102;50.828;4.416;2024-03-17T07:24:53;10.50;99.90
19880;DHT22;10102;50.828;4.416;2024-03-17T07:29:54;10.50;99.90
19880;DHT22;10102;50.828;4.416;2024-03-17T07:32:21;10.70;99.90
19880;DHT22;10102;50.828;4.416;2024-03-17T07:34:48;10.60;99.90
19880;DHT22;10102;50.828;4.416;2024-03-17T07:37:15;10.70;99.90
19880;DHT22;10102;50.828;4.416;2024-03-17T07:39:41;10.80;99.90
19880;DHT22;10102;50.828;4.416;2024-03-17T07:42:07;10.80;99.90
19880;DHT22;10102;50.828;4.416;2024-03-17T07:44:32;10.90;99.90
19880;DHT22;10102;50.828;4.416;2024-03-17T07:47:01;11.10;99.90
19880;DHT22;10102;50.828;4.416;2024-03-17T07:49:29;11.10;99.90
19880;DHT22;10102;50.828;4.416;2024-03-17T07:54:23;11.60;99.90
19880;DHT22;10102;50.828;4.416;2024-03-17T07:56:49;11.70;99.90
19880;DHT22;10102;50.828;4.416;2024-03-17T07:59:15;11.80;99.90
19880;DHT22;10102;50.828;4.416;2024-03-17T08:04:09;12.00;99.90
19880;DHT22;10102;50.828;4.416;2024-03-17T08:06:40;12.10;99.90
19880;DHT22;10102;50.828;4.416;2024-03-17T08:09:10;12.20;99.90
19880;DHT22;10102;50.828;4.416;2024-03-17T08:11:36;12.20;99.90
19880;DHT22;10102;50.828;4.416;2024-03-17T08:14:02;12.10;99.90
19880;DHT22;10102;50.828;4.416;2024-03-17T08:16:28;12.00;99.90
19880;DHT22;10102;50.828;4.416;2024-03-17T08:18:55;12.10;99.90
19880;DHT22;10102;50.828;4.416;2024-03-17T08:23:47;12.20;99.90
19880;DHT22;10102;50.828;4.416;2024-03-17T08:26:13;12.50;99.90
19880;DHT22;10102;50.828;4.416;2024-03-17T08:28:39;12.50;99.90
19880;DHT22;10102;50.828;4.416;2024-03-17T08:31:05;12.50;99.90
19880;DHT22;10102;50.828;4.416;2024-03-17T08:33:31;12.50;99.90
19880;DHT22;10102;50.828;4.416;2024-03-17T08:36:03;12.50;99.90
19880;DHT22;10102;50.828;4.416;2024-03-17T08:38:31;12.50;99.90
19880;DHT22;10102;50.828;4.416;2024-03-17T08:41:07;12.80;99.90
19880;DHT22;10102;50.828;4.416;2024-03-17T08:43:35;12.90;99.90
19880;DHT22;10102;50.828;4.416;2024-03-17T08:48:30;13.00;99.90
19880;DHT22;10102;50.828;4.416;2024-03-17T08:50:56;13.00;99.90
19880;DHT22;10102;50.828;4.416;2024-03-17T08:53:23;13.10;99.90
19880;DHT22;10102;50.828;4.416;2024-03-17T08:55:49;13.10;99.90
19880;DHT22;10102;50.828;4.416;2024-03-17T08:58:15;13.20;99.90
19880;DHT22;10102;50.828;4.416;2024-03-17T09:00:42;13.20;99.90
19880;DHT22;10102;50.828;4.416;2024-03-17T09:03:08;13.10;99.90
19880;DHT22;10102;50.828;4.416;2024-03-17T09:05:38;13.10;99.90
19880;DHT22;10102;50.828;4.416;2024-03-17T09:08:05;13.40;99.90
19880;DHT22;10102;50.828;4.416;2024-03-17T09:10:41;13.60;99.90
19880;DHT22;10102;50.828;4.416;2024-03-17T09:13:15;13.40;99.90
19880;DHT22;10102;50.828;4.416;2024-03-17T09:15:56;13.60;99.90
19880;DHT22;10102;50.828;4.416;2024-03-17T09:18:23;13.90;99.90
19880;DHT22;10102;50.828;4.416;2024-03-17T09:20:58;13.90;99.90
19880;DHT22;10102;50.828;4.416;2024-03-17T09:23:24;13.80;99.90
19880;DHT22;10102;50.828;4.416;2024-03-17T09:28:32;14.00;99.90
19880;DHT22;10102;50.828;4.416;2024-03-17T09:30:59;13.80;99.90
19880;DHT22;10102;50.828;4.416;2024-03-17T09:33:28;13.90;99.90
19880;DHT22;10102;50.828;4.416;2024-03-17T09:35:59;13.80;99.90
19880;DHT22;10102;50.828;4.416;2024-03-17T09:38:26;13.70;99.90
19880;DHT22;10102;50.828;4.416;2024-03-17T09:40:52;13.80;99.90
19880;DHT22;10102;50.828;4.416;2024-03-17T09:43:19;13.30;99.90
19880;DHT22;10102;50.828;4.416;2024-03-17T09:45:46;13.60;99.90
19880;DHT22;10102;50.828;4.416;2024-03-17T09:48:16;13.60;99.90
19880;DHT22;10102;50.828;4.416;2024-03-17T09:50:56;13.60;99.90
19880;DHT22;10102;50.828;4.416;2024-03-17T09:53:32;13.60;99.90
19880;DHT22;10102;50.828;4.416;2024-03-17T09:56:09;13.40;99.90
19880;DHT22;10102;50.828;4.416;2024-03-17T09:58:35;13.30;99.90
19880;DHT22;10102;50.828;4.416;2024-03-17T10:01:01;12.90;99.90
19880;DHT22;10102;50.828;4.416;2024-03-17T10:03:52;13.50;99.90
19880;DHT22;10102;50.828;4.416;2024-03-17T10:06:23;13.40;99.90
19880;DHT22;10102;50.828;4.416;2024-03-17T10:11:19;13.70;99.90
19880;DHT22;10102;50.828;4.416;2024-03-17T10:13:46;13.70;99.90
19880;DHT22;10102;50.828;4.416;2024-03-17T10:16:42;13.90;99.90
19880;DHT22;10102;50.828;4.416;2024-03-17T10:21:40;13.70;99.90
19880;DHT22;10102;50.828;4.416;2024-03-17T10:24:08;13.80;99.90
19880;DHT22;10102;50.828;4.416;2024-03-17T10:26:42;13.80;99.90
19880;DHT22;10102;50.828;4.416;2024-03-17T10:29:21;13.80;99.90
19880;DHT22;10102;50.828;4.416;2024-03-17T10:31:53;13.90;99.90
19880;DHT22;10102;50.828;4.416;2024-03-17T10:34:20;14.20;99.90
19880;DHT22;10102;50.828;4.416;2024-03-17T10:36:46;14.20;99.90
19880;DHT22;10102;50.828;4.416;2024-03-17T10:39:27;13.90;99.90
19880;DHT22;10102;50.828;4.416;2024-03-17T10:42:03;14.20;99.90
19880;DHT22;10102;50.828;4.416;2024-03-17T10:44:30;14.30;99.90
19880;DHT22;10102;50.828;4.416;2024-03-17T10:46:59;14.10;99.90
19880;DHT22;10102;50.828;4.416;2024-03-17T10:49:34;13.60;99.90
19880;DHT22;10102;50.828;4.416;2024-03-17T10:52:07;14.10;99.90
19880;DHT22;10102;50.828;4.416;2024-03-17T10:54:34;14.30;99.90
19880;DHT22;10102;50.828;4.416;2024-03-17T10:59:49;14.50;99.90
19880;DHT22;10102;50.828;4.416;2024-03-17T11:02:20;14.60;99.90
19880;DHT22;10102;50.828;4.416;2024-03-17T11:04:52;14.80;99.90
19880;DHT22;10102;50.828;4.416;2024-03-17T11:07:19;14.50;99.90
19880;DHT22;10102;50.828;4.416;2024-03-17T11:09:46;14.70;99.90
19880;DHT22;10102;50.828;4.416;2024-03-17T11:12:50;15.00;99.90
19880;DHT22;10102;50.828;4.416;2024-03-17T11:20:43;15.40;99.90
19880;DHT22;10102;50.828;4.416;2024-03-17T11:23:30;16.40;99.90
19880;DHT22;10102;50.828;4.416;2024-03-17T11:25:59;16.70;99.90
19880;DHT22;10102;50.828;4.416;2024-03-17T11:36:54;18.30;99.90
19880;DHT22;10102;50.828;4.416;2024-03-17T11:41:51;17.70;99.90
19880;DHT22;10102;50.828;4.416;2024-03-17T11:44:25;18.10;99.90
19880;DHT22;10102;50.828;4.416;2024-03-17T11:47:01;18.40;99.90
19880;DHT22;10102;50.828;4.416;2024-03-17T11:49:40;17.80;99.90
19880;DHT22;10102;50.828;4.416;2024-03-17T11:52:09;17.90;99.90
19880;DHT22;10102;50.828;4.416;2024-03-17T11:54:39;18.00;99.90
19880;DHT22;10102;50.828;4.416;2024-03-17T11:57:10;18.50;99.90
19880;DHT22;10102;50.828;4.416;2024-03-17T11:59:37;18.20;99.90
19880;DHT22;10102;50.828;4.416;2024-03-17T12:02:19;17.70;99.90
19880;DHT22;10102;50.828;4.416;2024-03-17T12:04:46;17.70;99.90
19880;DHT22;10102;50.828;4.416;2024-03-17T12:07:13;17.60;99.90
19880;DHT22;10102;50.828;4.416;2024-03-17T12:09:41;17.60;99.90
19880;DHT22;10102;50.828;4.416;2024-03-17T12:12:11;17.80;99.90
19880;DHT22;10102;50.828;4.416;2024-03-17T12:14:39;18.40;99.90
19880;DHT22;10102;50.828;4.416;2024-03-17T12:17:08;19.30;99.90
19880;DHT22;10102;50.828;4.416;2024-03-17T12:19:34;19.60;99.90
19880;DHT22;10102;50.828;4.416;2024-03-17T12:22:01;19.40;99.90
19880;DHT22;10102;50.828;4.416;2024-03-17T12:24:30;18.90;99.90
19880;DHT22;10102;50.828;4.416;2024-03-17T12:26:57;19.00;99.90
19880;DHT22;10102;50.828;4.416;2024-03-17T12:29:35;19.30;99.90
19880;DHT22;10102;50.828;4.416;2024-03-17T12:32:05;19.10;99.90
19880;DHT22;10102;50.828;4.416;2024-03-17T12:34:32;18.60;99.90
19880;DHT22;10102;50.828;4.416;2024-03-17T12:37:00;19.00;99.90
19880;DHT22;10102;50.828;4.416;2024-03-17T12:44:29;19.00;99.90
19880;DHT22;10102;50.828;4.416;2024-03-17T12:47:02;18.80;99.90
19880;DHT22;10102;50.828;4.416;2024-03-17T12:49:29;19.20;99.90
19880;DHT22;10102;50.828;4.416;2024-03-17T12:51:56;19.10;99.90
19880;DHT22;10102;50.828;4.416;2024-03-17T12:54:25;19.00;99.90
19880;DHT22;10102;50.828;4.416;2024-03-17T12:56:53;18.60;99.90
19880;DHT22;10102;50.828;4.416;2024-03-17T12:59:47;18.70;99.90
19880;DHT22;10102;50.828;4.416;2024-03-17T13:02:31;18.40;99.90
19880;DHT22;10102;50.828;4.416;2024-03-17T13:05:19;17.90;99.90
19880;DHT22;10102;50.828;4.416;2024-03-17T13:07:46;17.50;99.90
19880;DHT22;10102;50.828;4.416;2024-03-17T13:10:16;17.30;99.90
19880;DHT22;10102;50.828;4.416;2024-03-17T13:12:43;16.80;99.90
19880;DHT22;10102;50.828;4.416;2024-03-17T13:15:17;16.50;99.90
19880;DHT22;10102;50.828;4.416;2024-03-17T13:17:44;16.10;99.90
19880;DHT22;10102;50.828;4.416;2024-03-17T13:20:16;16.20;99.90
19880;DHT22;10102;50.828;4.416;2024-03-17T13:22:43;16.30;99.90
19880;DHT22;10102;50.828;4.416;2024-03-17T13:25:21;16.40;99.90
19880;DHT22;10102;50.828;4.416;2024-03-17T13:27:49;16.50;99.90
19880;DHT22;10102;50.828;4.416;2024-03-17T13:30:17;16.40;99.90
19880;DHT22;10102;50.828;4.416;2024-03-17T13:32:43;16.50;99.90
19880;DHT22;10102;50.828;4.416;2024-03-17T13:35:18;16.50;99.90
19880;DHT22;10102;50.828;4.416;2024-03-17T13:37:45;16.50;99.90
19880;DHT22;10102;50.828;4.416;2024-03-17T13:40:13;16.70;99.90
19880;DHT22;10102;50.828;4.416;2024-03-17T13:42:43;16.50;99.90
19880;DHT22;10102;50.828;4.416;2024-03-17T13:45:12;16.50;99.90
19880;DHT22;10102;50.828;4.416;2024-03-17T13:47:40;16.50;99.90
19880;DHT22;10102;50.828;4.416;2024-03-17T13:50:06;16.40;99.90
19880;DHT22;10102;50.828;4.416;2024-03-17T13:52:37;16.50;99.90
19880;DHT22;10102;50.828;4.416;2024-03-17T13:55:04;16.90;99.90
19880;DHT22;10102;50.828;4.416;2024-03-17T13:57:33;16.70;99.90
19880;DHT22;10102;50.828;4.416;2024-03-17T13:59:59;16.70;99.90
19880;DHT22;10102;50.828;4.416;2024-03-17T14:02:25;16.30;99.90
19880;DHT22;10102;50.828;4.416;2024-03-17T14:04:51;16.70;99.90
19880;DHT22;10102;50.828;4.416;2024-03-17T14:07:16;16.60;99.90
19880;DHT22;10102;50.828;4.416;2024-03-17T14:09:42;16.70;99.90
19880;DHT22;10102;50.828;4.416;2024-03-17T14:12:08;16.80;99.90
19880;DHT22;10102;50.828;4.416;2024-03-17T14:14:34;16.80;99.90
19880;DHT22;10102;50.828;4.416;2024-03-17T14:19:26;16.50;99.90
19880;DHT22;10102;50.828;4.416;2024-03-17T14:21:52;16.30;99.90
19880;DHT22;10102;50.828;4.416;2024-03-17T14:29:10;16.40;99.90
19880;DHT22;10102;50.828;4.416;2024-03-17T14:31:35;16.60;99.90
19880;DHT22;10102;50.828;4.416;2024-03-17T14:34:03;16.20;99.90
19880;DHT22;10102;50.828;4.416;2024-03-17T14:36:32;16.10;99.90
19880;DHT22;10102;50.828;4.416;2024-03-17T14:39:01;16.40;99.90
19880;DHT22;10102;50.828;4.416;2024-03-17T14:41:28;16.70;99.90
19880;DHT22;10102;50.828;4.416;2024-03-17T14:43:55;17.00;99.90
19880;DHT22;10102;50.828;4.416;2024-03-17T14:48:47;17.40;99.90
19880;DHT22;10102;50.828;4.416;2024-03-17T14:51:13;17.20;99.90
19880;DHT22;10102;50.828;4.416;2024-03-17T14:53:39;17.10;99.90
19880;DHT22;10102;50.828;4.416;2024-03-17T14:56:08;17.10;99.90
19880;DHT22;10102;50.828;4.416;2024-03-17T14:58:35;17.50;99.90
19880;DHT22;10102;50.828;4.416;2024-03-17T15:01:01;17.00;99.90
19880;DHT22;10102;50.828;4.416;2024-03-17T15:03:27;16.80;99.90
19880;DHT22;10102;50.828;4.416;2024-03-17T15:05:53;16.60;99.90
19880;DHT22;10102;50.828;4.416;2024-03-17T15:08:19;16.50;99.90
19880;DHT22;10102;50.828;4.416;2024-03-17T15:10:45;16.10;99.90
19880;DHT22;10102;50.828;4.416;2024-03-17T15:13:10;16.30;99.90
19880;DHT22;10102;50.828;4.416;2024-03-17T15:15:40;16.30;99.90
19880;DHT22;10102;50.828;4.416;2024-03-17T15:18:05;16.40;99.90
19880;DHT22;10102;50.828;4.416;2024-03-17T15:20:31;16.40;99.90
19880;DHT22;10102;50.828;4.416;2024-03-17T15:22:57;16.30;99.90
19880;DHT22;10102;50.828;4.416;2024-03-17T15:27:50;16.10;99.90
19880;DHT22;10102;50.828;4.416;2024-03-17T15:30:17;15.90;99.90
19880;DHT22;10102;50.828;4.416;2024-03-17T15:32:47;15.70;99.90
19880;DHT22;10102;50.828;4.416;2024-03-17T15:35:13;15.80;99.90
19880;DHT22;10102;50.828;4.416;2024-03-17T15:37:40;15.70;99.90
19880;DHT22;10102;50.828;4.416;2024-03-17T15:40:07;15.40;99.90
19880;DHT22;10102;50.828;4.416;2024-03-17T15:42:33;15.70;99.90
19880;DHT22;10102;50.828;4.416;2024-03-17T15:44:59;15.40;99.90
19880;DHT22;10102;50.828;4.416;2024-03-17T15:47:25;15.40;99.90
19880;DHT22;10102;50.828;4.416;2024-03-17T15:49:50;15.20;99.90
19880;DHT22;10102;50.828;4.416;2024-03-17T15:52:16;15.20;99.90
19880;DHT22;10102;50.828;4.416;2024-03-17T15:54:42;15.20;99.90
19880;DHT22;10102;50.828;4.416;2024-03-17T15:57:07;15.10;99.90
19880;DHT22;10102;50.828;4.416;2024-03-17T15:59:33;15.20;99.90
19880;DHT22;10102;50.828;4.416;2024-03-17T16:02:00;15.40;99.90
19880;DHT22;10102;50.828;4.416;2024-03-17T16:04:26;15.50;99.90
19880;DHT22;10102;50.828;4.416;2024-03-17T16:06:53;15.50;99.90
19880;DHT22;10102;50.828;4.416;2024-03-17T16:09:20;15.10;99.90
19880;DHT22;10102;50.828;4.416;2024-03-17T16:11:46;15.20;99.90
19880;DHT22;10102;50.828;4.416;2024-03-17T16:14:14;15.30;99.90
19880;DHT22;10102;50.828;4.416;2024-03-17T16:16:41;15.00;99.90
19880;DHT22;10102;50.828;4.416;2024-03-17T16:19:07;15.10;99.90
19880;DHT22;10102;50.828;4.416;2024-03-17T16:21:33;15.10;99.90
19880;DHT22;10102;50.828;4.416;2024-03-17T16:24:08;15.00;99.90
19880;DHT22;10102;50.828;4.416;2024-03-17T16:26:36;15.00;99.90
19880;DHT22;10102;50.828;4.416;2024-03-17T16:29:03;15.00;99.90
19880;DHT22;10102;50.828;4.416;2024-03-17T16:31:31;15.00;99.90
19880;DHT22;10102;50.828;4.416;2024-03-17T16:33:56;14.90;99.90
19880;DHT22;10102;50.828;4.416;2024-03-17T16:36:25;14.60;99.90
19880;DHT22;10102;50.828;4.416;2024-03-17T16:38:52;14.60;99.90
19880;DHT22;10102;50.828;4.416;2024-03-17T16:41:18;14.50;99.90
19880;DHT22;10102;50.828;4.416;2024-03-17T16:44:03;14.50;99.90
19880;DHT22;10102;50.828;4.416;2024-03-17T16:49:06;14.60;99.90
19880;DHT22;10102;50.828;4.416;2024-03-17T16:51:34;14.60;99.90
19880;DHT22;10102;50.828;4.416;2024-03-17T16:53:59;14.40;99.90
19880;DHT22;10102;50.828;4.416;2024-03-17T16:56:25;14.10;99.90
19880;DHT22;10102;50.828;4.416;2024-03-17T16:58:51;14.30;99.90
19880;DHT22;10102;50.828;4.416;2024-03-17T17:01:17;14.30;99.90
19880;DHT22;10102;50.828;4.416;2024-03-17T17:03:43;14.30;99.90
19880;DHT22;10102;50.828;4.416;2024-03-17T17:06:09;14.20;99.90
19880;DHT22;10102;50.828;4.416;2024-03-17T17:08:35;14.10;99.90
19880;DHT22;10102;50.828;4.416;2024-03-17T17:11:01;14.30;99.90
19880;DHT22;10102;50.828;4.416;2024-03-17T17:13:28;13.90;99.90
19880;DHT22;10102;50.828;4.416;2024-03-17T17:15:55;13.90;99.90
19880;DHT22;10102;50.828;4.416;2024-03-17T17:18:54;14.00;99.90
19880;DHT22;10102;50.828;4.416;2024-03-17T17:21:25;13.70;99.90
19880;DHT22;10102;50.828;4.416;2024-03-17T17:23:51;13.60;99.90
19880;DHT22;10102;50.828;4.416;2024-03-17T17:28:43;13.70;99.90
19880;DHT22;10102;50.828;4.416;2024-03-17T17:31:10;13.60;99.90
19880;DHT22;10102;50.828;4.416;2024-03-17T17:33:37;13.50;99.90
19880;DHT22;10102;50.828;4.416;2024-03-17T17:36:09;13.60;99.90